sensor_id;sensor_type;location;lat;lon;timestamp;temperature;humidity
16180;DHT22;8196;49.428;10.906;2023-04-24T00:02:21;10.20;99.90
16180;DHT22;8196;49.428;10.906;2023-04-24T00:04:48;10.20;99.90
16180;DHT22;8196;49.428;10.906;2023-04-24T00:07:15;11.30;99.90
16180;DHT22;8196;49.428;10.906;2023-04-24T00:09:43;10.10;99.90
16180;DHT22;8196;49.428;10.906;2023-04-24T00:12:10;10.10;99.90
16180;DHT22;8196;49.428;10.906;2023-04-24T00:14:38;10.00;99.90
16180;DHT22;8196;49.428;10.906;2023-04-24T00:17:04;10.10;99.90
16180;DHT22;8196;49.428;10.906;2023-04-24T00:19:31;10.10;99.90
16180;DHT22;8196;49.428;10.906;2023-04-24T00:21:58;10.20;99.90
16180;DHT22;8196;49.428;10.906;2023-04-24T00:24:25;10.00;99.90
16180;DHT22;8196;49.428;10.906;2023-04-24T00:26:51;10.00;99.90
16180;DHT22;8196;49.428;10.906;2023-04-24T00:29:18;10.00;99.90
16180;DHT22;8196;49.428;10.906;2023-04-24T00:31:45;9.90;99.90
16180;DHT22;8196;49.428;10.906;2023-04-24T00:34:12;9.90;99.90
16180;DHT22;8196;49.428;10.906;2023-04-24T00:36:39;9.90;99.90
16180;DHT22;8196;49.428;10.906;2023-04-24T00:39:06;9.80;99.90
16180;DHT22;8196;49.428;10.906;2023-04-24T00:41:35;9.80;99.90
16180;DHT22;8196;49.428;10.906;2023-04-24T00:44:02;9.80;99.90
16180;DHT22;8196;49.428;10.906;2023-04-24T00:46:29;9.70;99.90
16180;DHT22;8196;49.428;10.906;2023-04-24T00:48:56;9.70;99.90
16180;DHT22;8196;49.428;10.906;2023-04-24T00:51:23;9.80;99.90
16180;DHT22;8196;49.428;10.906;2023-04-24T00:53:51;11.10;99.90
16180;DHT22;8196;49.428;10.906;2023-04-24T00:56:18;9.70;99.90
16180;DHT22;8196;49.428;10.906;2023-04-24T00:58:46;9.80;99.90
16180;DHT22;8196;49.428;10.906;2023-04-24T01:01:14;9.80;99.90
16180;DHT22;8196;49.428;10.906;2023-04-24T01:03:41;9.80;99.90
16180;DHT22;8196;49.428;10.906;2023-04-24T01:06:09;9.80;99.90
16180;DHT22;8196;49.428;10.906;2023-04-24T01:08:37;9.70;99.90
16180;DHT22;8196;49.428;10.906;2023-04-24T01:11:04;9.80;99.90
16180;DHT22;8196;49.428;10.906;2023-04-24T01:13:32;9.80;99.90
16180;DHT22;8196;49.428;10.906;2023-04-24T01:15:59;9.80;99.90
16180;DHT22;8196;49.428;10.906;2023-04-24T01:18:27;9.70;99.90
16180;DHT22;8196;49.428;10.906;2023-04-24T01:20:58;9.70;99.90
16180;DHT22;8196;49.428;10.906;2023-04-24T01:23:26;9.60;99.90
16180;DHT22;8196;49.428;10.906;2023-04-24T01:25:52;9.60;99.90
16180;DHT22;8196;49.428;10.906;2023-04-24T01:28:19;9.60;99.90
16180;DHT22;8196;49.428;10.906;2023-04-24T01:30:47;9.60;99.90
16180;DHT22;8196;49.428;10.906;2023-04-24T01:33:13;9.80;99.90
16180;DHT22;8196;49.428;10.906;2023-04-24T01:35:41;9.60;99.90
16180;DHT22;8196;49.428;10.906;2023-04-24T01:38:07;9.60;99.90
16180;DHT22;8196;49.428;10.906;2023-04-24T01:40:34;9.60;99.90
16180;DHT22;8196;49.428;10.906;2023-04-24T01:43:02;9.60;99.90
16180;DHT22;8196;49.428;10.906;2023-04-24T01:45:29;9.70;99.90
16180;DHT22;8196;49.428;10.906;2023-04-24T01:47:56;9.60;99.90
16180;DHT22;8196;49.428;10.906;2023-04-24T01:50:23;9.70;99.90
16180;DHT22;8196;49.428;10.906;2023-04-24T01:52:50;9.70;99.90
16180;DHT22;8196;49.428;10.906;2023-04-24T01:55:17;9.60;99.90
16180;DHT22;8196;49.428;10.906;2023-04-24T01:57:44;9.60;99.90
16180;DHT22;8196;49.428;10.906;2023-04-24T02:00:11;9.60;99.90
16180;DHT22;8196;49.428;10.906;2023-04-24T02:02:40;9.50;99.90
16180;DHT22;8196;49.428;10.906;2023-04-24T02:05:08;9.50;99.90
16180;DHT22;8196;49.428;10.906;2023-04-24T02:07:35;9.30;99.90
16180;DHT22;8196;49.428;10.906;2023-04-24T02:10:03;9.60;99.90
16180;DHT22;8196;49.428;10.906;2023-04-24T02:12:30;9.40;99.90
16180;DHT22;8196;49.428;10.906;2023-04-24T02:14:57;9.40;99.90
16180;DHT22;8196;49.428;10.906;2023-04-24T02:17:24;9.30;99.90
16180;DHT22;8196;49.428;10.906;2023-04-24T02:19:51;9.30;99.90
16180;DHT22;8196;49.428;10.906;2023-04-24T02:22:17;9.30;99.90
16180;DHT22;8196;49.428;10.906;2023-04-24T02:24:44;9.30;99.90
16180;DHT22;8196;49.428;10.906;2023-04-24T02:27:11;9.30;99.90
16180;DHT22;8196;49.428;10.906;2023-04-24T02:29:38;9.20;99.90
16180;DHT22;8196;49.428;10.906;2023-04-24T02:32:04;9.20;99.90
16180;DHT22;8196;49.428;10.906;2023-04-24T02:34:31;9.20;99.90
16180;DHT22;8196;49.428;10.906;2023-04-24T02:36:58;9.20;99.90
16180;DHT22;8196;49.428;10.906;2023-04-24T02:39:25;9.20;99.90
16180;DHT22;8196;49.428;10.906;2023-04-24T02:41:51;9.20;99.90
16180;DHT22;8196;49.428;10.906;2023-04-24T02:44:18;9.20;99.90
16180;DHT22;8196;49.428;10.906;2023-04-24T02:46:45;9.20;99.90
16180;DHT22;8196;49.428;10.906;2023-04-24T02:49:11;9.20;99.90
16180;DHT22;8196;49.428;10.906;2023-04-24T02:51:38;9.20;99.90
16180;DHT22;8196;49.428;10.906;2023-04-24T02:54:08;9.20;99.90
16180;DHT22;8196;49.428;10.906;2023-04-24T02:56:36;9.10;99.90
16180;DHT22;8196;49.428;10.906;2023-04-24T02:59:03;9.10;99.90
16180;DHT22;8196;49.428;10.906;2023-04-24T03:01:29;9.00;99.90
16180;DHT22;8196;49.428;10.906;2023-04-24T03:03:57;9.10;99.90
16180;DHT22;8196;49.428;10.906;2023-04-24T03:06:24;9.10;99.90
16180;DHT22;8196;49.428;10.906;2023-04-24T03:08:53;9.10;99.90
16180;DHT22;8196;49.428;10.906;2023-04-24T03:11:20;9.10;99.90
16180;DHT22;8196;49.428;10.906;2023-04-24T03:13:47;9.10;99.90
16180;DHT22;8196;49.428;10.906;2023-04-24T03:16:13;9.10;99.90
16180;DHT22;8196;49.428;10.906;2023-04-24T03:18:40;9.00;99.90
16180;DHT22;8196;49.428;10.906;2023-04-24T03:21:07;12.60;99.90
16180;DHT22;8196;49.428;10.906;2023-04-24T03:23:34;9.00;99.90
16180;DHT22;8196;49.428;10.906;2023-04-24T03:26:00;9.00;99.90
16180;DHT22;8196;49.428;10.906;2023-04-24T03:28:28;9.00;99.90
16180;DHT22;8196;49.428;10.906;2023-04-24T03:30:55;9.00;99.90
16180;DHT22;8196;49.428;10.906;2023-04-24T03:33:22;9.00;99.90
16180;DHT22;8196;49.428;10.906;2023-04-24T03:35:48;9.00;99.90
16180;DHT22;8196;49.428;10.906;2023-04-24T03:38:15;9.00;99.90
16180;DHT22;8196;49.428;10.906;2023-04-24T03:40:42;8.90;99.90
16180;DHT22;8196;49.428;10.906;2023-04-24T03:43:08;8.90;99.90
16180;DHT22;8196;49.428;10.906;2023-04-24T03:45:35;8.90;99.90
16180;DHT22;8196;49.428;10.906;2023-04-24T03:48:02;8.90;99.90
16180;DHT22;8196;49.428;10.906;2023-04-24T03:50:29;7.00;99.90
16180;DHT22;8196;49.428;10.906;2023-04-24T03:52:55;8.90;99.90
16180;DHT22;8196;49.428;10.906;2023-04-24T03:55:22;8.80;99.90
16180;DHT22;8196;49.428;10.906;2023-04-24T03:57:49;8.80;99.90
16180;DHT22;8196;49.428;10.906;2023-04-24T04:00:16;9.10;99.90
16180;DHT22;8196;49.428;10.906;2023-04-24T04:02:43;8.80;99.90
16180;DHT22;8196;49.428;10.906;2023-04-24T04:05:09;8.80;99.90
16180;DHT22;8196;49.428;10.906;2023-04-24T04:07:36;8.80;99.90
16180;DHT22;8196;49.428;10.906;2023-04-24T04:10:03;8.80;99.90
16180;DHT22;8196;49.428;10.906;2023-04-24T04:12:30;8.70;99.90
16180;DHT22;8196;49.428;10.906;2023-04-24T04:14:57;8.80;99.90
16180;DHT22;8196;49.428;10.906;2023-04-24T04:17:24;8.70;99.90
16180;DHT22;8196;49.428;10.906;2023-04-24T04:19:50;8.30;99.90
16180;DHT22;8196;49.428;10.906;2023-04-24T04:22:17;8.70;99.90
16180;DHT22;8196;49.428;10.906;2023-04-24T04:24:44;8.70;99.90
16180;DHT22;8196;49.428;10.906;2023-04-24T04:27:10;8.70;99.90
16180;DHT22;8196;49.428;10.906;2023-04-24T04:29:38;8.70;99.90
16180;DHT22;8196;49.428;10.906;2023-04-24T04:32:06;8.70;99.90
16180;DHT22;8196;49.428;10.906;2023-04-24T04:34:33;8.70;99.90
16180;DHT22;8196;49.428;10.906;2023-04-24T04:37:00;8.70;99.90
16180;DHT22;8196;49.428;10.906;2023-04-24T04:39:28;9.90;99.90
16180;DHT22;8196;49.428;10.906;2023-04-24T04:41:55;8.80;99.90
16180;DHT22;8196;49.428;10.906;2023-04-24T04:44:21;8.80;99.90
16180;DHT22;8196;49.428;10.906;2023-04-24T04:49:19;8.80;99.90
16180;DHT22;8196;49.428;10.906;2023-04-24T04:51:48;8.80;99.90
16180;DHT22;8196;49.428;10.906;2023-04-24T04:54:15;8.80;99.90
16180;DHT22;8196;49.428;10.906;2023-04-24T04:56:42;8.80;99.90
16180;DHT22;8196;49.428;10.906;2023-04-24T04:59:09;8.80;99.90
16180;DHT22;8196;49.428;10.906;2023-04-24T05:01:35;8.80;99.90
16180;DHT22;8196;49.428;10.906;2023-04-24T05:04:03;8.90;99.90
16180;DHT22;8196;49.428;10.906;2023-04-24T05:06:30;6.40;99.90
16180;DHT22;8196;49.428;10.906;2023-04-24T05:08:57;9.00;99.90
16180;DHT22;8196;49.428;10.906;2023-04-24T05:11:24;9.10;99.90
16180;DHT22;8196;49.428;10.906;2023-04-24T05:13:50;9.10;99.90
16180;DHT22;8196;49.428;10.906;2023-04-24T05:16:17;9.10;99.90
16180;DHT22;8196;49.428;10.906;2023-04-24T05:18:44;9.20;99.90
16180;DHT22;8196;49.428;10.906;2023-04-24T05:21:13;9.10;99.90
16180;DHT22;8196;49.428;10.906;2023-04-24T05:23:40;9.20;99.90
16180;DHT22;8196;49.428;10.906;2023-04-24T05:26:07;9.20;99.90
16180;DHT22;8196;49.428;10.906;2023-04-24T05:28:33;9.20;99.90
16180;DHT22;8196;49.428;10.906;2023-04-24T05:31:03;9.30;99.90
16180;DHT22;8196;49.428;10.906;2023-04-24T05:33:29;9.40;99.90
16180;DHT22;8196;49.428;10.906;2023-04-24T05:35:57;9.40;99.90
16180;DHT22;8196;49.428;10.906;2023-04-24T05:38:24;9.50;99.90
16180;DHT22;8196;49.428;10.906;2023-04-24T05:40:51;9.60;99.90
16180;DHT22;8196;49.428;10.906;2023-04-24T05:43:17;9.60;99.90
16180;DHT22;8196;49.428;10.906;2023-04-24T05:45:44;9.80;99.90
16180;DHT22;8196;49.428;10.906;2023-04-24T05:48:11;10.60;99.90
16180;DHT22;8196;49.428;10.906;2023-04-24T05:50:38;10.10;99.90
16180;DHT22;8196;49.428;10.906;2023-04-24T05:53:04;10.20;99.90
16180;DHT22;8196;49.428;10.906;2023-04-24T05:55:33;10.00;99.90
16180;DHT22;8196;49.428;10.906;2023-04-24T05:58:00;10.30;99.90
16180;DHT22;8196;49.428;10.906;2023-04-24T06:00:27;10.30;99.90
16180;DHT22;8196;49.428;10.906;2023-04-24T06:02:55;10.40;99.90
16180;DHT22;8196;49.428;10.906;2023-04-24T06:05:22;10.40;99.90
16180;DHT22;8196;49.428;10.906;2023-04-24T06:07:49;10.30;99.90
16180;DHT22;8196;49.428;10.906;2023-04-24T06:10:16;10.40;99.90
16180;DHT22;8196;49.428;10.906;2023-04-24T06:12:43;10.40;99.90
16180;DHT22;8196;49.428;10.906;2023-04-24T06:15:10;10.40;99.90
16180;DHT22;8196;49.428;10.906;2023-04-24T06:17:36;10.40;99.90
16180;DHT22;8196;49.428;10.906;2023-04-24T06:20:04;10.40;99.90
16180;DHT22;8196;49.428;10.906;2023-04-24T06:22:32;10.40;99.90
16180;DHT22;8196;49.428;10.906;2023-04-24T06:24:59;10.40;99.90
16180;DHT22;8196;49.428;10.906;2023-04-24T06:27:27;7.70;99.90
16180;DHT22;8196;49.428;10.906;2023-04-24T06:29:53;10.20;99.90
16180;DHT22;8196;49.428;10.906;2023-04-24T06:32:22;10.20;99.90
16180;DHT22;8196;49.428;10.906;2023-04-24T06:34:52;9.90;99.90
16180;DHT22;8196;49.428;10.906;2023-04-24T06:37:20;10.20;99.90
16180;DHT22;8196;49.428;10.906;2023-04-24T06:39:47;10.60;99.90
16180;DHT22;8196;49.428;10.906;2023-04-24T06:42:14;9.60;99.90
16180;DHT22;8196;49.428;10.906;2023-04-24T06:44:40;10.20;99.90
16180;DHT22;8196;49.428;10.906;2023-04-24T06:47:08;10.20;99.90
16180;DHT22;8196;49.428;10.906;2023-04-24T06:49:37;10.20;99.90
16180;DHT22;8196;49.428;10.906;2023-04-24T06:52:04;10.30;99.90
16180;DHT22;8196;49.428;10.906;2023-04-24T06:54:31;10.40;99.90
16180;DHT22;8196;49.428;10.906;2023-04-24T06:56:59;10.50;99.90
16180;DHT22;8196;49.428;10.906;2023-04-24T06:59:27;10.50;99.90
16180;DHT22;8196;49.428;10.906;2023-04-24T07:01:55;10.60;99.90
16180;DHT22;8196;49.428;10.906;2023-04-24T07:04:22;10.50;99.90
16180;DHT22;8196;49.428;10.906;2023-04-24T07:06:49;10.60;99.90
16180;DHT22;8196;49.428;10.906;2023-04-24T07:09:16;10.60;99.90
16180;DHT22;8196;49.428;10.906;2023-04-24T07:11:44;10.60;99.90
16180;DHT22;8196;49.428;10.906;2023-04-24T07:14:12;10.80;99.90
16180;DHT22;8196;49.428;10.906;2023-04-24T07:16:39;10.80;99.90
16180;DHT22;8196;49.428;10.906;2023-04-24T07:19:06;10.80;99.90
16180;DHT22;8196;49.428;10.906;2023-04-24T07:21:33;10.80;99.90
16180;DHT22;8196;49.428;10.906;2023-04-24T07:23:59;10.80;99.90
16180;DHT22;8196;49.428;10.906;2023-04-24T07:26:29;10.80;99.90
16180;DHT22;8196;49.428;10.906;2023-04-24T07:28:56;10.70;99.90
16180;DHT22;8196;49.428;10.906;2023-04-24T07:31:23;10.70;99.90
16180;DHT22;8196;49.428;10.906;2023-04-24T07:33:50;10.70;99.90
16180;DHT22;8196;49.428;10.906;2023-04-24T07:36:17;10.80;99.90
16180;DHT22;8196;49.428;10.906;2023-04-24T07:38:46;10.80;99.90
16180;DHT22;8196;49.428;10.906;2023-04-24T07:41:13;11.40;99.90
16180;DHT22;8196;49.428;10.906;2023-04-24T07:43:41;11.30;99.90
16180;DHT22;8196;49.428;10.906;2023-04-24T07:46:08;11.50;99.90
16180;DHT22;8196;49.428;10.906;2023-04-24T07:48:36;11.90;99.90
16180;DHT22;8196;49.428;10.906;2023-04-24T07:51:03;12.00;99.90
16180;DHT22;8196;49.428;10.906;2023-04-24T07:53:30;12.10;99.90
16180;DHT22;8196;49.428;10.906;2023-04-24T07:55:56;12.20;99.90
16180;DHT22;8196;49.428;10.906;2023-04-24T07:58:23;16.50;99.90
16180;DHT22;8196;49.428;10.906;2023-04-24T08:00:50;12.10;99.90
16180;DHT22;8196;49.428;10.906;2023-04-24T08:03:17;11.90;99.90
16180;DHT22;8196;49.428;10.906;2023-04-24T08:05:46;11.90;99.90
16180;DHT22;8196;49.428;10.906;2023-04-24T08:08:13;11.90;99.90
16180;DHT22;8196;49.428;10.906;2023-04-24T08:10:41;11.90;99.90
16180;DHT22;8196;49.428;10.906;2023-04-24T08:13:07;11.90;99.90
16180;DHT22;8196;49.428;10.906;2023-04-24T08:15:36;11.90;99.90
16180;DHT22;8196;49.428;10.906;2023-04-24T08:18:03;11.80;99.90
16180;DHT22;8196;49.428;10.906;2023-04-24T08:20:29;11.80;99.90
16180;DHT22;8196;49.428;10.906;2023-04-24T08:22:56;11.80;99.90
16180;DHT22;8196;49.428;10.906;2023-04-24T08:25:23;11.70;99.90
16180;DHT22;8196;49.428;10.906;2023-04-24T08:27:51;11.80;99.90
16180;DHT22;8196;49.428;10.906;2023-04-24T08:30:18;11.70;99.90
16180;DHT22;8196;49.428;10.906;2023-04-24T08:32:45;11.70;99.90
16180;DHT22;8196;49.428;10.906;2023-04-24T08:35:12;11.60;99.90
16180;DHT22;8196;49.428;10.906;2023-04-24T08:37:39;11.60;99.90
16180;DHT22;8196;49.428;10.906;2023-04-24T08:40:13;11.70;99.90
16180;DHT22;8196;49.428;10.906;2023-04-24T08:42:43;11.90;99.90
16180;DHT22;8196;49.428;10.906;2023-04-24T08:45:11;12.00;99.90
16180;DHT22;8196;49.428;10.906;2023-04-24T08:47:40;12.30;99.90
16180;DHT22;8196;49.428;10.906;2023-04-24T08:50:08;12.40;99.90
16180;DHT22;8196;49.428;10.906;2023-04-24T08:52:36;12.10;99.90
16180;DHT22;8196;49.428;10.906;2023-04-24T08:55:03;11.90;99.90
16180;DHT22;8196;49.428;10.906;2023-04-24T08:57:31;11.80;99.90
16180;DHT22;8196;49.428;10.906;2023-04-24T08:59:59;11.80;99.90
16180;DHT22;8196;49.428;10.906;2023-04-24T09:02:26;12.00;99.90
16180;DHT22;8196;49.428;10.906;2023-04-24T09:04:53;12.00;99.90
16180;DHT22;8196;49.428;10.906;2023-04-24T09:07:24;12.50;99.90
16180;DHT22;8196;49.428;10.906;2023-04-24T09:09:52;12.60;99.90
16180;DHT22;8196;49.428;10.906;2023-04-24T09:12:19;12.90;99.90
16180;DHT22;8196;49.428;10.906;2023-04-24T09:14:48;13.20;99.90
16180;DHT22;8196;49.428;10.906;2023-04-24T09:17:15;13.00;99.90
16180;DHT22;8196;49.428;10.906;2023-04-24T09:19:41;13.10;99.90
16180;DHT22;8196;49.428;10.906;2023-04-24T09:22:10;12.80;99.90
16180;DHT22;8196;49.428;10.906;2023-04-24T09:24:38;12.50;99.90
16180;DHT22;8196;49.428;10.906;2023-04-24T09:27:05;12.10;99.90
16180;DHT22;8196;49.428;10.906;2023-04-24T09:29:32;12.10;99.90
16180;DHT22;8196;49.428;10.906;2023-04-24T09:31:59;12.30;99.90
16180;DHT22;8196;49.428;10.906;2023-04-24T09:34:27;12.60;99.90
16180;DHT22;8196;49.428;10.906;2023-04-24T09:36:54;13.60;99.90
16180;DHT22;8196;49.428;10.906;2023-04-24T09:39:21;13.60;99.90
16180;DHT22;8196;49.428;10.906;2023-04-24T09:41:56;15.30;96.80
16180;DHT22;8196;49.428;10.906;2023-04-24T09:44:26;14.90;91.80
16180;DHT22;8196;49.428;10.906;2023-04-24T09:46:55;14.80;86.30
16180;DHT22;8196;49.428;10.906;2023-04-24T09:49:26;14.80;86.90
16180;DHT22;8196;49.428;10.906;2023-04-24T09:52:13;14.90;90.60
16180;DHT22;8196;49.428;10.906;2023-04-24T09:54:41;15.50;90.00
16180;DHT22;8196;49.428;10.906;2023-04-24T09:57:08;15.50;82.50
16180;DHT22;8196;49.428;10.906;2023-04-24T09:59:42;15.50;83.90
16180;DHT22;8196;49.428;10.906;2023-04-24T10:02:17;15.50;79.00
16180;DHT22;8196;49.428;10.906;2023-04-24T10:05:00;15.60;75.00
16180;DHT22;8196;49.428;10.906;2023-04-24T10:07:28;16.10;68.10
16180;DHT22;8196;49.428;10.906;2023-04-24T10:09:54;16.10;70.50
16180;DHT22;8196;49.428;10.906;2023-04-24T10:12:21;16.40;68.70
16180;DHT22;8196;49.428;10.906;2023-04-24T10:14:49;16.60;66.40
16180;DHT22;8196;49.428;10.906;2023-04-24T10:17:17;16.80;58.90
16180;DHT22;8196;49.428;10.906;2023-04-24T10:19:45;16.80;58.50
16180;DHT22;8196;49.428;10.906;2023-04-24T10:22:14;17.20;60.10
16180;DHT22;8196;49.428;10.906;2023-04-24T10:24:43;17.70;56.00
16180;DHT22;8196;49.428;10.906;2023-04-24T10:27:11;17.20;54.60
16180;DHT22;8196;49.428;10.906;2023-04-24T10:29:40;17.10;55.40
16180;DHT22;8196;49.428;10.906;2023-04-24T10:32:07;16.10;56.50
16180;DHT22;8196;49.428;10.906;2023-04-24T10:34:36;15.30;63.80
16180;DHT22;8196;49.428;10.906;2023-04-24T10:37:03;14.50;71.00
16180;DHT22;8196;49.428;10.906;2023-04-24T10:39:30;14.50;71.60
16180;DHT22;8196;49.428;10.906;2023-04-24T10:41:59;14.00;73.90
16180;DHT22;8196;49.428;10.906;2023-04-24T10:44:36;13.50;77.60
16180;DHT22;8196;49.428;10.906;2023-04-24T10:47:03;13.00;81.70
16180;DHT22;8196;49.428;10.906;2023-04-24T10:49:31;13.00;82.50
16180;DHT22;8196;49.428;10.906;2023-04-24T10:52:03;12.80;79.50
16180;DHT22;8196;49.428;10.906;2023-04-24T10:54:41;12.50;78.50
16180;DHT22;8196;49.428;10.906;2023-04-24T10:57:28;12.60;77.90
16180;DHT22;8196;49.428;10.906;2023-04-24T11:00:15;12.70;78.40
16180;DHT22;8196;49.428;10.906;2023-04-24T11:02:42;13.30;75.00
16180;DHT22;8196;49.428;10.906;2023-04-24T11:05:16;13.60;72.50
16180;DHT22;8196;49.428;10.906;2023-04-24T11:11:03;14.10;70.70
16180;DHT22;8196;49.428;10.906;2023-04-24T11:16:30;15.10;67.00
16180;DHT22;8196;49.428;10.906;2023-04-24T11:21:48;16.00;65.00
16180;DHT22;8196;49.428;10.906;2023-04-24T11:24:38;16.70;61.50
16180;DHT22;8196;49.428;10.906;2023-04-24T11:27:12;18.30;56.80
16180;DHT22;8196;49.428;10.906;2023-04-24T11:32:28;18.60;57.20
16180;DHT22;8196;49.428;10.906;2023-04-24T11:35:01;18.50;57.70
16180;DHT22;8196;49.428;10.906;2023-04-24T11:37:36;18.20;55.30
16180;DHT22;8196;49.428;10.906;2023-04-24T11:40:05;17.90;56.20
16180;DHT22;8196;49.428;10.906;2023-04-24T11:42:36;17.00;58.00
16180;DHT22;8196;49.428;10.906;2023-04-24T11:47:34;17.70;56.70
16180;DHT22;8196;49.428;10.906;2023-04-24T11:50:02;14.60;54.80
16180;DHT22;8196;49.428;10.906;2023-04-24T11:52:30;16.90;58.20
16180;DHT22;8196;49.428;10.906;2023-04-24T11:54:57;16.40;58.90
16180;DHT22;8196;49.428;10.906;2023-04-24T11:57:25;15.70;58.00
16180;DHT22;8196;49.428;10.906;2023-04-24T11:59:55;15.60;59.00
16180;DHT22;8196;49.428;10.906;2023-04-24T12:02:24;15.50;59.90
16180;DHT22;8196;49.428;10.906;2023-04-24T12:04:53;15.60;61.20
16180;DHT22;8196;49.428;10.906;2023-04-24T12:07:21;16.30;60.00
16180;DHT22;8196;49.428;10.906;2023-04-24T12:12:25;16.50;61.00
16180;DHT22;8196;49.428;10.906;2023-04-24T12:20:11;17.90;56.70
16180;DHT22;8196;49.428;10.906;2023-04-24T12:22:55;17.80;55.30
16180;DHT22;8196;49.428;10.906;2023-04-24T12:25:25;17.00;57.30
16180;DHT22;8196;49.428;10.906;2023-04-24T12:27:54;16.20;59.30
16180;DHT22;8196;49.428;10.906;2023-04-24T12:30:26;16.10;60.60
16180;DHT22;8196;49.428;10.906;2023-04-24T12:32:56;15.70;59.90
16180;DHT22;8196;49.428;10.906;2023-04-24T12:35:25;15.40;61.00
16180;DHT22;8196;49.428;10.906;2023-04-24T12:37:52;15.10;60.70
16180;DHT22;8196;49.428;10.906;2023-04-24T12:40:20;15.10;61.80
16180;DHT22;8196;49.428;10.906;2023-04-24T12:42:49;15.10;62.30
16180;DHT22;8196;49.428;10.906;2023-04-24T12:45:17;15.10;62.40
16180;DHT22;8196;49.428;10.906;2023-04-24T12:47:45;15.50;60.60
16180;DHT22;8196;49.428;10.906;2023-04-24T12:50:14;15.60;61.10
16180;DHT22;8196;49.428;10.906;2023-04-24T12:52:41;15.80;60.90
16180;DHT22;8196;49.428;10.906;2023-04-24T12:55:09;16.40;60.30
16180;DHT22;8196;49.428;10.906;2023-04-24T12:57:37;17.90;57.00
16180;DHT22;8196;49.428;10.906;2023-04-24T13:00:07;18.20;57.80
16180;DHT22;8196;49.428;10.906;2023-04-24T13:02:34;19.60;53.20
16180;DHT22;8196;49.428;10.906;2023-04-24T13:05:01;19.70;51.70
16180;DHT22;8196;49.428;10.906;2023-04-24T13:07:28;18.90;51.40
16180;DHT22;8196;49.428;10.906;2023-04-24T13:09:56;18.60;52.20
16180;DHT22;8196;49.428;10.906;2023-04-24T13:12:24;17.40;54.80
16180;DHT22;8196;49.428;10.906;2023-04-24T13:14:52;16.40;57.10
16180;DHT22;8196;49.428;10.906;2023-04-24T13:17:19;15.00;60.60
16180;DHT22;8196;49.428;10.906;2023-04-24T13:19:46;15.00;61.30
16180;DHT22;8196;49.428;10.906;2023-04-24T13:22:13;14.70;62.70
16180;DHT22;8196;49.428;10.906;2023-04-24T13:24:40;14.40;62.70
16180;DHT22;8196;49.428;10.906;2023-04-24T13:27:08;14.70;62.30
16180;DHT22;8196;49.428;10.906;2023-04-24T13:29:36;14.80;63.10
16180;DHT22;8196;49.428;10.906;2023-04-24T13:32:03;14.80;63.20
16180;DHT22;8196;49.428;10.906;2023-04-24T13:34:30;14.60;65.00
16180;DHT22;8196;49.428;10.906;2023-04-24T13:36:58;13.10;72.20
16180;DHT22;8196;49.428;10.906;2023-04-24T13:39:26;13.00;72.80
16180;DHT22;8196;49.428;10.906;2023-04-24T13:41:53;12.40;75.80
16180;DHT22;8196;49.428;10.906;2023-04-24T13:44:21;12.10;77.20
16180;DHT22;8196;49.428;10.906;2023-04-24T13:46:51;12.30;77.20
16180;DHT22;8196;49.428;10.906;2023-04-24T13:49:18;12.70;75.90
16180;DHT22;8196;49.428;10.906;2023-04-24T13:51:45;13.20;75.10
16180;DHT22;8196;49.428;10.906;2023-04-24T13:54:12;14.00;72.10
16180;DHT22;8196;49.428;10.906;2023-04-24T13:56:40;15.30;66.60
16180;DHT22;8196;49.428;10.906;2023-04-24T13:59:07;16.90;64.60
16180;DHT22;8196;49.428;10.906;2023-04-24T14:01:35;19.20;59.50
16180;DHT22;8196;49.428;10.906;2023-04-24T14:04:02;21.60;52.80
16180;DHT22;8196;49.428;10.906;2023-04-24T14:06:29;22.30;49.10
16180;DHT22;8196;49.428;10.906;2023-04-24T14:08:56;22.30;46.90
16180;DHT22;8196;49.428;10.906;2023-04-24T14:11:23;22.40;47.50
16180;DHT22;8196;49.428;10.906;2023-04-24T14:13:50;20.10;44.10
16180;DHT22;8196;49.428;10.906;2023-04-24T14:16:17;21.90;47.30
16180;DHT22;8196;49.428;10.906;2023-04-24T14:18:44;20.40;49.30
16180;DHT22;8196;49.428;10.906;2023-04-24T14:21:10;22.30;53.80
16180;DHT22;8196;49.428;10.906;2023-04-24T14:23:37;18.00;53.30
16180;DHT22;8196;49.428;10.906;2023-04-24T14:26:04;16.50;57.00
16180;DHT22;8196;49.428;10.906;2023-04-24T14:28:32;15.40;60.30
16180;DHT22;8196;49.428;10.906;2023-04-24T14:30:58;15.20;62.00
16180;DHT22;8196;49.428;10.906;2023-04-24T14:33:25;14.80;63.40
16180;DHT22;8196;49.428;10.906;2023-04-24T14:35:52;14.70;64.60
16180;DHT22;8196;49.428;10.906;2023-04-24T14:38:19;14.90;65.30
16180;DHT22;8196;49.428;10.906;2023-04-24T14:40:46;14.80;66.40
16180;DHT22;8196;49.428;10.906;2023-04-24T14:43:15;14.40;65.70
16180;DHT22;8196;49.428;10.906;2023-04-24T14:45:43;14.20;65.50
16180;DHT22;8196;49.428;10.906;2023-04-24T14:48:10;14.30;65.00
16180;DHT22;8196;49.428;10.906;2023-04-24T14:50:37;14.70;65.00
16180;DHT22;8196;49.428;10.906;2023-04-24T14:53:04;17.00;59.10
16180;DHT22;8196;49.428;10.906;2023-04-24T14:55:31;19.20;54.80
16180;DHT22;8196;49.428;10.906;2023-04-24T14:57:59;20.20;51.50
16180;DHT22;8196;49.428;10.906;2023-04-24T15:00:26;20.90;50.80
16180;DHT22;8196;49.428;10.906;2023-04-24T15:02:53;22.20;47.80
16180;DHT22;8196;49.428;10.906;2023-04-24T15:05:22;22.30;47.00
16180;DHT22;8196;49.428;10.906;2023-04-24T15:07:49;22.10;47.40
16180;DHT22;8196;49.428;10.906;2023-04-24T15:10:16;22.30;47.70
16180;DHT22;8196;49.428;10.906;2023-04-24T15:12:44;22.80;47.40
16180;DHT22;8196;49.428;10.906;2023-04-24T15:15:11;22.80;45.90
16180;DHT22;8196;49.428;10.906;2023-04-24T15:17:37;22.60;46.40
16180;DHT22;8196;49.428;10.906;2023-04-24T15:20:05;22.50;47.20
16180;DHT22;8196;49.428;10.906;2023-04-24T15:22:33;22.90;46.20
16180;DHT22;8196;49.428;10.906;2023-04-24T15:25:00;22.70;46.30
16180;DHT22;8196;49.428;10.906;2023-04-24T15:27:27;22.80;45.40
16180;DHT22;8196;49.428;10.906;2023-04-24T15:29:54;22.70;46.10
16180;DHT22;8196;49.428;10.906;2023-04-24T15:32:21;24.70;48.60
16180;DHT22;8196;49.428;10.906;2023-04-24T15:34:48;21.30;48.30
16180;DHT22;8196;49.428;10.906;2023-04-24T15:37:22;17.90;52.60
16180;DHT22;8196;49.428;10.906;2023-04-24T15:39:49;17.50;53.80
16180;DHT22;8196;49.428;10.906;2023-04-24T15:42:17;16.50;55.90
16180;DHT22;8196;49.428;10.906;2023-04-24T15:44:44;15.70;57.60
16180;DHT22;8196;49.428;10.906;2023-04-24T15:47:11;14.70;59.60
16180;DHT22;8196;49.428;10.906;2023-04-24T15:49:40;14.70;60.40
16180;DHT22;8196;49.428;10.906;2023-04-24T15:52:07;14.00;59.50
16180;DHT22;8196;49.428;10.906;2023-04-24T15:54:35;14.00;60.40
16180;DHT22;8196;49.428;10.906;2023-04-24T15:57:04;13.70;61.40
16180;DHT22;8196;49.428;10.906;2023-04-24T15:59:31;13.70;61.60
16180;DHT22;8196;49.428;10.906;2023-04-24T16:01:58;13.70;61.90
16180;DHT22;8196;49.428;10.906;2023-04-24T16:04:24;13.50;63.60